sensor_id;sensor_type;location;lat;lon;timestamp;pressure;altitude;pressure_sealevel;temperature;humidity
78613;BME280;67933;51.060;3.638;2023-05-10T00:00:46;101068.13;;;11.48;100.00
78613;BME280;67933;51.060;3.638;2023-05-10T00:03:12;101065.22;;;11.52;100.00
78613;BME280;67933;51.060;3.638;2023-05-10T00:05:37;101069.97;;;11.62;100.00
78613;BME280;67933;51.060;3.638;2023-05-10T00:08:03;101077.69;;;11.66;100.00
78613;BME280;67933;51.060;3.638;2023-05-10T00:10:28;101066.03;;;11.69;100.00
78613;BME280;67933;51.060;3.638;2023-05-10T00:12:54;101065.91;;;11.70;100.00
78613;BME280;67933;51.060;3.638;2023-05-10T00:15:19;101079.03;;;11.73;100.00
78613;BME280;67933;51.060;3.638;2023-05-10T00:17:45;101074.44;;;11.77;100.00
78613;BME280;67933;51.060;3.638;2023-05-10T00:20:10;101076.13;;;11.78;100.00
78613;BME280;67933;51.060;3.638;2023-05-10T00:22:36;101073.31;;;11.81;100.00
78613;BME280;67933;51.060;3.638;2023-05-10T00:25:01;101072.16;;;11.85;100.00
78613;BME280;67933;51.060;3.638;2023-05-10T00:27:27;101064.97;;;11.87;100.00
78613;BME280;67933;51.060;3.638;2023-05-10T00:29:52;101060.69;;;11.84;100.00
78613;BME280;67933;51.060;3.638;2023-05-10T00:32:17;101062.22;;;11.88;100.00
78613;BME280;67933;51.060;3.638;2023-05-10T00:34:43;101071.03;;;11.89;100.00
78613;BME280;67933;51.060;3.638;2023-05-10T00:37:08;101072.84;;;11.88;100.00
78613;BME280;67933;51.060;3.638;2023-05-10T00:39:34;101065.03;;;11.85;100.00
78613;BME280;67933;51.060;3.638;2023-05-10T00:41:59;101066.84;;;11.85;100.00
78613;BME280;67933;51.060;3.638;2023-05-10T00:44:25;101076.44;;;11.87;100.00
78613;BME280;67933;51.060;3.638;2023-05-10T00:46:50;101080.81;;;11.88;100.00
78613;BME280;67933;51.060;3.638;2023-05-10T00:49:16;101081.75;;;11.87;100.00
78613;BME280;67933;51.060;3.638;2023-05-10T00:51:41;101080.03;;;11.86;100.00
78613;BME280;67933;51.060;3.638;2023-05-10T00:54:10;101078.00;;;11.91;100.00
78613;BME280;67933;51.060;3.638;2023-05-10T00:56:36;101077.88;;;11.93;100.00
78613;BME280;67933;51.060;3.638;2023-05-10T00:59:02;101069.91;;;11.93;100.00
78613;BME280;67933;51.060;3.638;2023-05-10T01:01:28;101071.53;;;11.95;100.00
78613;BME280;67933;51.060;3.638;2023-05-10T01:03:54;101078.16;;;11.88;100.00
78613;BME280;67933;51.060;3.638;2023-05-10T01:06:20;101078.75;;;11.93;100.00
78613;BME280;67933;51.060;3.638;2023-05-10T01:08:46;101079.88;;;11.89;100.00
78613;BME280;67933;51.060;3.638;2023-05-10T01:11:12;101070.34;;;11.85;99.39
78613;BME280;67933;51.060;3.638;2023-05-10T01:13:41;101075.00;;;11.82;100.00
78613;BME280;67933;51.060;3.638;2023-05-10T01:16:07;101074.00;;;11.84;99.83
78613;BME280;67933;51.060;3.638;2023-05-10T01:18:35;101076.03;;;11.79;100.00
78613;BME280;67933;51.060;3.638;2023-05-10T01:29:30;101096.44;;;11.79;99.52
78613;BME280;67933;51.060;3.638;2023-05-10T01:37:26;101103.47;;;11.80;99.76
78613;BME280;67933;51.060;3.638;2023-05-10T01:40:00;101099.88;;;11.81;99.71
78613;BME280;67933;51.060;3.638;2023-05-10T01:42:31;101105.47;;;11.76;99.39
78613;BME280;67933;51.060;3.638;2023-05-10T01:45:21;101108.22;;;11.75;100.00
78613;BME280;67933;51.060;3.638;2023-05-10T01:47:57;101098.59;;;11.72;99.92
78613;BME280;67933;51.060;3.638;2023-05-10T01:50:27;101111.00;;;11.72;100.00
78613;BME280;67933;51.060;3.638;2023-05-10T01:52:57;101109.09;;;11.75;100.00
78613;BME280;67933;51.060;3.638;2023-05-10T01:55:26;101107.94;;;11.79;100.00
78613;BME280;67933;51.060;3.638;2023-05-10T01:58:01;101108.34;;;11.72;99.25
78613;BME280;67933;51.060;3.638;2023-05-10T02:00:28;101121.44;;;11.76;100.00
78613;BME280;67933;51.060;3.638;2023-05-10T02:02:55;101111.94;;;11.71;98.81
78613;BME280;67933;51.060;3.638;2023-05-10T02:05:21;101111.88;;;11.72;99.27
78613;BME280;67933;51.060;3.638;2023-05-10T02:07:49;101120.00;;;11.69;99.13
78613;BME280;67933;51.060;3.638;2023-05-10T02:10:16;101126.09;;;11.71;99.19
78613;BME280;67933;51.060;3.638;2023-05-10T02:12:43;101129.91;;;11.67;99.43
78613;BME280;67933;51.060;3.638;2023-05-10T02:15:12;101127.81;;;11.72;99.34
78613;BME280;67933;51.060;3.638;2023-05-10T02:17:41;101132.34;;;11.70;99.38
78613;BME280;67933;51.060;3.638;2023-05-10T02:20:07;101127.03;;;11.70;98.84
78613;BME280;67933;51.060;3.638;2023-05-10T02:22:35;101126.88;;;11.73;97.70
78613;BME280;67933;51.060;3.638;2023-05-10T02:25:01;101139.25;;;11.74;98.77
78613;BME280;67933;51.060;3.638;2023-05-10T02:27:29;101134.72;;;11.76;98.47
78613;BME280;67933;51.060;3.638;2023-05-10T02:29:56;101142.03;;;11.71;98.97
78613;BME280;67933;51.060;3.638;2023-05-10T02:32:24;101149.06;;;11.72;99.41
78613;BME280;67933;51.060;3.638;2023-05-10T02:34:50;101143.09;;;11.69;98.85
78613;BME280;67933;51.060;3.638;2023-05-10T02:37:18;101143.69;;;11.74;99.50
78613;BME280;67933;51.060;3.638;2023-05-10T02:39:46;101146.34;;;11.74;99.85
78613;BME280;67933;51.060;3.638;2023-05-10T02:42:16;101147.16;;;11.76;99.31
78613;BME280;67933;51.060;3.638;2023-05-10T02:44:43;101148.00;;;11.76;99.62
78613;BME280;67933;51.060;3.638;2023-05-10T02:47:10;101151.25;;;11.81;98.85
78613;BME280;67933;51.060;3.638;2023-05-10T02:49:36;101155.78;;;11.79;98.85
78613;BME280;67933;51.060;3.638;2023-05-10T02:52:05;101154.06;;;11.78;99.87
78613;BME280;67933;51.060;3.638;2023-05-10T02:54:45;101162.03;;;11.78;99.13
78613;BME280;67933;51.060;3.638;2023-05-10T02:57:16;101152.53;;;11.74;98.56
78613;BME280;67933;51.060;3.638;2023-05-10T02:59:44;101155.19;;;11.74;99.88
78613;BME280;67933;51.060;3.638;2023-05-10T03:02:12;101157.88;;;11.74;99.01
78613;BME280;67933;51.060;3.638;2023-05-10T03:04:37;101150.03;;;11.71;99.25
78613;BME280;67933;51.060;3.638;2023-05-10T03:07:03;101158.00;;;11.71;99.45
78613;BME280;67933;51.060;3.638;2023-05-10T03:09:29;101151.75;;;11.72;99.62
78613;BME280;67933;51.060;3.638;2023-05-10T03:17:54;101160.66;;;11.71;98.98
78613;BME280;67933;51.060;3.638;2023-05-10T03:20:35;101165.09;;;11.71;100.00
78613;BME280;67933;51.060;3.638;2023-05-10T03:23:10;101171.28;;;11.71;99.44
78613;BME280;67933;51.060;3.638;2023-05-10T03:25:37;101174.03;;;11.70;99.37
78613;BME280;67933;51.060;3.638;2023-05-10T03:28:04;101163.19;;;11.74;99.21
78613;BME280;67933;51.060;3.638;2023-05-10T03:30:30;101167.69;;;11.72;99.50
78613;BME280;67933;51.060;3.638;2023-05-10T03:32:56;101167.19;;;11.66;99.36
78613;BME280;67933;51.060;3.638;2023-05-10T03:35:23;101163.38;;;11.70;98.33
78613;BME280;67933;51.060;3.638;2023-05-10T03:37:48;101172.34;;;11.69;98.48
78613;BME280;67933;51.060;3.638;2023-05-10T03:40:14;101172.41;;;11.67;99.65
78613;BME280;67933;51.060;3.638;2023-05-10T03:42:39;101174.88;;;11.70;98.99
78613;BME280;67933;51.060;3.638;2023-05-10T03:45:05;101178.31;;;11.72;97.73
78613;BME280;67933;51.060;3.638;2023-05-10T03:47:31;101179.25;;;11.71;98.08
78613;BME280;67933;51.060;3.638;2023-05-10T03:49:57;101176.78;;;11.68;97.20
78613;BME280;67933;51.060;3.638;2023-05-10T03:52:22;101179.53;;;11.67;97.76
78613;BME280;67933;51.060;3.638;2023-05-10T03:54:48;101176.94;;;11.65;96.91
78613;BME280;67933;51.060;3.638;2023-05-10T03:57:13;101181.41;;;11.65;96.88
78613;BME280;67933;51.060;3.638;2023-05-10T03:59:38;101179.03;;;11.60;97.63
78613;BME280;67933;51.060;3.638;2023-05-10T04:02:04;101178.16;;;11.60;98.08
78613;BME280;67933;51.060;3.638;2023-05-10T04:04:30;101183.13;;;11.50;97.57
78613;BME280;67933;51.060;3.638;2023-05-10T04:06:55;101185.63;;;11.53;98.53
78613;BME280;67933;51.060;3.638;2023-05-10T04:09:20;101186.22;;;11.58;96.37
78613;BME280;67933;51.060;3.638;2023-05-10T04:11:46;101181.06;;;11.55;97.77
78613;BME280;67933;51.060;3.638;2023-05-10T04:14:11;101177.66;;;11.53;98.20
78613;BME280;67933;51.060;3.638;2023-05-10T04:16:37;101185.88;;;11.48;98.09
78613;BME280;67933;51.060;3.638;2023-05-10T04:19:02;101176.25;;;11.46;98.44
78613;BME280;67933;51.060;3.638;2023-05-10T04:21:28;101184.56;;;11.40;99.15
78613;BME280;67933;51.060;3.638;2023-05-10T04:23:53;101183.63;;;11.41;99.64
78613;BME280;67933;51.060;3.638;2023-05-10T04:26:19;101184.66;;;11.38;99.29
78613;BME280;67933;51.060;3.638;2023-05-10T04:28:45;101185.63;;;11.37;99.93
78613;BME280;67933;51.060;3.638;2023-05-10T04:31:10;101184.66;;;11.38;99.79
78613;BME280;67933;51.060;3.638;2023-05-10T04:33:36;101186.38;;;11.39;100.00
78613;BME280;67933;51.060;3.638;2023-05-10T04:36:02;101195.81;;;11.45;100.00
78613;BME280;67933;51.060;3.638;2023-05-10T04:38:28;101188.78;;;11.44;100.00
78613;BME280;67933;51.060;3.638;2023-05-10T04:40:54;101196.69;;;11.45;100.00
78613;BME280;67933;51.060;3.638;2023-05-10T04:43:19;101196.41;;;11.50;100.00
78613;BME280;67933;51.060;3.638;2023-05-10T04:45:45;101191.88;;;11.52;100.00
78613;BME280;67933;51.060;3.638;2023-05-10T04:48:11;101197.78;;;11.57;100.00
78613;BME280;67933;51.060;3.638;2023-05-10T04:50:36;101195.81;;;11.61;99.67
78613;BME280;67933;51.060;3.638;2023-05-10T04:53:02;101191.19;;;11.64;100.00
78613;BME280;67933;51.060;3.638;2023-05-10T04:55:27;101189.09;;;11.69;100.00
78613;BME280;67933;51.060;3.638;2023-05-10T04:57:53;101201.56;;;11.69;99.87
78613;BME280;67933;51.060;3.638;2023-05-10T05:00:21;101190.53;;;11.76;100.00
78613;BME280;67933;51.060;3.638;2023-05-10T05:02:47;101200.13;;;11.79;99.97
78613;BME280;67933;51.060;3.638;2023-05-10T05:05:12;101204.25;;;11.84;99.97
78613;BME280;67933;51.060;3.638;2023-05-10T05:07:38;101198.72;;;11.87;99.49
78613;BME280;67933;51.060;3.638;2023-05-10T05:10:06;101198.72;;;11.87;99.18
78613;BME280;67933;51.060;3.638;2023-05-10T05:12:31;101202.25;;;11.88;99.23
78613;BME280;67933;51.060;3.638;2023-05-10T05:14:57;101206.47;;;11.92;98.73
78613;BME280;67933;51.060;3.638;2023-05-10T05:17:22;101204.63;;;11.92;99.19
78613;BME280;67933;51.060;3.638;2023-05-10T05:19:47;101209.94;;;11.92;99.69
78613;BME280;67933;51.060;3.638;2023-05-10T05:22:13;101202.66;;;11.96;97.74
78613;BME280;67933;51.060;3.638;2023-05-10T05:24:39;101214.31;;;11.93;98.59
78613;BME280;67933;51.060;3.638;2023-05-10T05:27:05;101208.69;;;12.00;98.55
78613;BME280;67933;51.060;3.638;2023-05-10T05:29:31;101214.59;;;12.05;97.38
78613;BME280;67933;51.060;3.638;2023-05-10T05:31:56;101217.25;;;12.05;96.91
78613;BME280;67933;51.060;3.638;2023-05-10T05:34:22;101221.53;;;12.07;97.70
78613;BME280;67933;51.060;3.638;2023-05-10T05:36:47;101227.78;;;12.06;97.53
78613;BME280;67933;51.060;3.638;2023-05-10T05:39:13;101227.03;;;12.04;96.56
78613;BME280;67933;51.060;3.638;2023-05-10T05:41:39;101232.91;;;12.09;96.92
78613;BME280;67933;51.060;3.638;2023-05-10T05:44:04;101234.84;;;12.07;97.79
78613;BME280;67933;51.060;3.638;2023-05-10T05:46:30;101231.72;;;12.15;97.38
78613;BME280;67933;51.060;3.638;2023-05-10T05:48:56;101229.81;;;12.17;97.40
78613;BME280;67933;51.060;3.638;2023-05-10T05:51:21;101235.53;;;12.25;97.99
78613;BME280;67933;51.060;3.638;2023-05-10T05:53:47;101239.06;;;12.25;97.07
78613;BME280;67933;51.060;3.638;2023-05-10T05:56:12;101240.53;;;12.31;96.59
78613;BME280;67933;51.060;3.638;2023-05-10T05:58:38;101243.41;;;12.42;96.58
78613;BME280;67933;51.060;3.638;2023-05-10T06:01:03;101233.34;;;12.47;95.54
78613;BME280;67933;51.060;3.638;2023-05-10T06:03:29;101240.97;;;12.53;96.28
78613;BME280;67933;51.060;3.638;2023-05-10T06:05:55;101249.38;;;12.61;95.78
78613;BME280;67933;51.060;3.638;2023-05-10T06:08:20;101248.78;;;12.70;96.47
78613;BME280;67933;51.060;3.638;2023-05-10T06:10:45;101249.00;;;12.67;96.90
78613;BME280;67933;51.060;3.638;2023-05-10T06:13:11;101252.59;;;12.66;96.19
78613;BME280;67933;51.060;3.638;2023-05-10T06:15:37;101251.75;;;12.66;95.37
78613;BME280;67933;51.060;3.638;2023-05-10T06:18:03;101260.41;;;12.69;95.78
78613;BME280;67933;51.060;3.638;2023-05-10T06:20:28;101260.97;;;12.60;95.98
78613;BME280;67933;51.060;3.638;2023-05-10T06:22:54;101259.25;;;12.59;96.47
78613;BME280;67933;51.060;3.638;2023-05-10T06:25:19;101261.63;;;12.64;97.27
78613;BME280;67933;51.060;3.638;2023-05-10T06:27:44;101258.94;;;12.64;97.16
78613;BME280;67933;51.060;3.638;2023-05-10T06:30:10;101258.47;;;12.57;96.91
78613;BME280;67933;51.060;3.638;2023-05-10T06:32:38;101265.13;;;12.64;97.26
78613;BME280;67933;51.060;3.638;2023-05-10T06:35:03;101265.63;;;12.71;97.17
78613;BME280;67933;51.060;3.638;2023-05-10T06:37:29;101271.09;;;12.84;95.88
78613;BME280;67933;51.060;3.638;2023-05-10T06:39:56;101275.50;;;12.99;94.68
78613;BME280;67933;51.060;3.638;2023-05-10T06:42:21;101275.88;;;13.07;93.06
78613;BME280;67933;51.060;3.638;2023-05-10T06:44:46;101273.00;;;13.10;92.71
78613;BME280;67933;51.060;3.638;2023-05-10T06:47:12;101279.06;;;13.14;91.29
78613;BME280;67933;51.060;3.638;2023-05-10T06:49:37;101282.41;;;13.31;93.16
78613;BME280;67933;51.060;3.638;2023-05-10T06:52:03;101283.72;;;13.38;93.77
78613;BME280;67933;51.060;3.638;2023-05-10T06:54:29;101280.59;;;13.46;93.49
78613;BME280;67933;51.060;3.638;2023-05-10T06:56:54;101282.56;;;13.28;90.87
78613;BME280;67933;51.060;3.638;2023-05-10T06:59:20;101283.34;;;13.16;92.55
78613;BME280;67933;51.060;3.638;2023-05-10T07:01:46;101280.25;;;13.08;91.84
78613;BME280;67933;51.060;3.638;2023-05-10T07:04:12;101292.41;;;12.98;92.56
78613;BME280;67933;51.060;3.638;2023-05-10T07:06:38;101288.19;;;12.94;93.79
78613;BME280;67933;51.060;3.638;2023-05-10T07:09:03;101286.13;;;12.85;93.00
78613;BME280;67933;51.060;3.638;2023-05-10T07:11:28;101292.47;;;12.82;92.96
78613;BME280;67933;51.060;3.638;2023-05-10T07:13:54;101293.59;;;12.78;92.93
78613;BME280;67933;51.060;3.638;2023-05-10T07:16:19;101303.75;;;12.71;93.21
78613;BME280;67933;51.060;3.638;2023-05-10T07:18:45;101300.47;;;12.82;93.40
78613;BME280;67933;51.060;3.638;2023-05-10T07:21:10;101300.03;;;13.04;93.12
78613;BME280;67933;51.060;3.638;2023-05-10T07:23:35;101297.03;;;13.24;92.71
78613;BME280;67933;51.060;3.638;2023-05-10T07:26:01;101302.94;;;13.29;92.53
78613;BME280;67933;51.060;3.638;2023-05-10T07:28:27;101299.72;;;13.38;90.18
78613;BME280;67933;51.060;3.638;2023-05-10T07:30:52;101307.13;;;13.47;91.02
78613;BME280;67933;51.060;3.638;2023-05-10T07:33:18;101302.75;;;13.32;90.19
78613;BME280;67933;51.060;3.638;2023-05-10T07:35:43;101308.09;;;13.46;90.56
78613;BME280;67933;51.060;3.638;2023-05-10T07:38:09;101309.31;;;13.41;90.39
78613;BME280;67933;51.060;3.638;2023-05-10T07:40:36;101302.94;;;13.43;91.38
78613;BME280;67933;51.060;3.638;2023-05-10T07:43:01;101308.25;;;13.58;91.15
78613;BME280;67933;51.060;3.638;2023-05-10T07:45:27;101302.16;;;13.84;87.88
78613;BME280;67933;51.060;3.638;2023-05-10T07:47:53;101305.34;;;14.03;86.01
78613;BME280;67933;51.060;3.638;2023-05-10T07:50:18;101308.31;;;14.25;86.10
78613;BME280;67933;51.060;3.638;2023-05-10T07:52:44;101304.63;;;14.55;83.83
78613;BME280;67933;51.060;3.638;2023-05-10T07:55:09;101307.34;;;14.80;84.07
78613;BME280;67933;51.060;3.638;2023-05-10T07:57:35;101307.69;;;14.88;81.85
78613;BME280;67933;51.060;3.638;2023-05-10T08:00:00;101320.13;;;15.02;83.54
78613;BME280;67933;51.060;3.638;2023-05-10T08:02:26;101305.25;;;15.11;79.63
78613;BME280;67933;51.060;3.638;2023-05-10T08:04:51;101313.91;;;15.01;79.89
78613;BME280;67933;51.060;3.638;2023-05-10T08:07:17;101311.00;;;15.05;79.53
78613;BME280;67933;51.060;3.638;2023-05-10T08:09:43;101314.72;;;14.77;80.30
78613;BME280;67933;51.060;3.638;2023-05-10T08:12:08;101317.91;;;14.69;83.48
78613;BME280;67933;51.060;3.638;2023-05-10T08:14:34;101310.63;;;14.71;83.88
78613;BME280;67933;51.060;3.638;2023-05-10T08:17:02;101319.75;;;14.81;83.30
78613;BME280;67933;51.060;3.638;2023-05-10T08:19:28;101318.09;;;14.66;81.95
78613;BME280;67933;51.060;3.638;2023-05-10T08:21:53;101320.31;;;14.86;83.00
78613;BME280;67933;51.060;3.638;2023-05-10T08:24:21;101321.47;;;14.95;80.46
78613;BME280;67933;51.060;3.638;2023-05-10T08:26:46;101324.38;;;14.92;80.97
78613;BME280;67933;51.060;3.638;2023-05-10T08:29:13;101325.59;;;14.74;83.00
78613;BME280;67933;51.060;3.638;2023-05-10T08:31:38;101329.03;;;14.49;83.26
78613;BME280;67933;51.060;3.638;2023-05-10T08:34:03;101324.53;;;14.22;82.90
78613;BME280;67933;51.060;3.638;2023-05-10T08:36:29;101331.84;;;13.92;83.40
78613;BME280;67933;51.060;3.638;2023-05-10T08:38:55;101340.91;;;13.75;85.79
78613;BME280;67933;51.060;3.638;2023-05-10T08:41:21;101337.41;;;13.75;85.62
78613;BME280;67933;51.060;3.638;2023-05-10T08:43:50;101340.63;;;13.80;85.31
78613;BME280;67933;51.060;3.638;2023-05-10T08:46:17;101347.75;;;13.79;84.40
78613;BME280;67933;51.060;3.638;2023-05-10T08:48:45;101346.16;;;13.91;86.31
78613;BME280;67933;51.060;3.638;2023-05-10T08:51:15;101353.84;;;13.96;85.93
78613;BME280;67933;51.060;3.638;2023-05-10T08:53:43;101349.31;;;13.83;85.25
78613;BME280;67933;51.060;3.638;2023-05-10T08:56:09;101350.72;;;13.75;86.18
78613;BME280;67933;51.060;3.638;2023-05-10T08:58:34;101362.16;;;13.77;86.17
78613;BME280;67933;51.060;3.638;2023-05-10T09:01:00;101362.72;;;13.82;83.67
78613;BME280;67933;51.060;3.638;2023-05-10T09:03:26;101350.91;;;14.00;85.54
78613;BME280;67933;51.060;3.638;2023-05-10T09:05:51;101353.44;;;14.16;86.15
78613;BME280;67933;51.060;3.638;2023-05-10T09:08:17;101352.72;;;14.41;85.25
78613;BME280;67933;51.060;3.638;2023-05-10T09:10:44;101355.75;;;14.49;81.57
78613;BME280;67933;51.060;3.638;2023-05-10T09:13:10;101362.47;;;14.81;80.90
78613;BME280;67933;51.060;3.638;2023-05-10T09:15:37;101358.53;;;14.87;79.05
78613;BME280;67933;51.060;3.638;2023-05-10T09:18:02;101361.53;;;15.47;79.29
78613;BME280;67933;51.060;3.638;2023-05-10T09:20:28;101363.09;;;15.88;75.69
78613;BME280;67933;51.060;3.638;2023-05-10T09:22:53;101359.63;;;16.11;74.00
78613;BME280;67933;51.060;3.638;2023-05-10T09:25:19;101365.16;;;15.84;74.04
78613;BME280;67933;51.060;3.638;2023-05-10T09:27:46;101371.69;;;15.67;75.33
78613;BME280;67933;51.060;3.638;2023-05-10T09:30:27;101373.38;;;15.30;77.62
78613;BME280;67933;51.060;3.638;2023-05-10T09:32:54;101375.28;;;15.28;78.53
78613;BME280;67933;51.060;3.638;2023-05-10T09:35:22;101372.28;;;15.08;79.41
78613;BME280;67933;51.060;3.638;2023-05-10T09:37:53;101387.28;;;15.23;81.61
78613;BME280;67933;51.060;3.638;2023-05-10T09:40:24;101378.53;;;15.59;77.85
78613;BME280;67933;51.060;3.638;2023-05-10T09:43:08;101374.66;;;16.01;73.84
78613;BME280;67933;51.060;3.638;2023-05-10T09:45:36;101368.53;;;16.35;76.56
78613;BME280;67933;51.060;3.638;2023-05-10T09:48:02;101377.34;;;16.01;74.63
78613;BME280;67933;51.060;3.638;2023-05-10T09:50:29;101383.47;;;15.65;77.89
78613;BME280;67933;51.060;3.638;2023-05-10T09:52:56;101385.94;;;15.68;75.01
78613;BME280;67933;51.060;3.638;2023-05-10T09:55:45;101373.75;;;16.26;76.01
78613;BME280;67933;51.060;3.638;2023-05-10T09:58:12;101387.38;;;16.46;75.00
78613;BME280;67933;51.060;3.638;2023-05-10T10:00:40;101379.53;;;16.20;77.37
78613;BME280;67933;51.060;3.638;2023-05-10T10:03:07;101392.97;;;15.94;76.59
78613;BME280;67933;51.060;3.638;2023-05-10T10:05:40;101384.75;;;15.59;76.89
78613;BME280;67933;51.060;3.638;2023-05-10T10:08:06;101383.31;;;16.04;77.44
78613;BME280;67933;51.060;3.638;2023-05-10T10:10:32;101384.25;;;16.52;75.61
78613;BME280;67933;51.060;3.638;2023-05-10T10:12:59;101378.41;;;16.95;72.23
78613;BME280;67933;51.060;3.638;2023-05-10T10:15:25;101371.59;;;17.13;71.93
78613;BME280;67933;51.060;3.638;2023-05-10T10:17:51;101383.50;;;16.98;71.44
78613;BME280;67933;51.060;3.638;2023-05-10T10:20:19;101380.53;;;16.79;73.32
78613;BME280;67933;51.060;3.638;2023-05-10T10:22:46;101378.78;;;17.02;73.33
78613;BME280;67933;51.060;3.638;2023-05-10T10:25:13;101381.19;;;17.51;70.97
78613;BME280;67933;51.060;3.638;2023-05-10T10:35:39;101380.63;;;16.17;73.21
78613;BME280;67933;51.060;3.638;2023-05-10T10:38:08;101385.94;;;15.55;74.80
78613;BME280;67933;51.060;3.638;2023-05-10T10:40:33;101392.47;;;15.12;78.45
78613;BME280;67933;51.060;3.638;2023-05-10T10:48:38;101386.09;;;15.27;76.21
78613;BME280;67933;51.060;3.638;2023-05-10T10:51:04;101392.72;;;15.34;79.03
78613;BME280;67933;51.060;3.638;2023-05-10T10:53:30;101394.66;;;15.32;78.39
78613;BME280;67933;51.060;3.638;2023-05-10T10:56:07;101399.44;;;15.27;79.41
78613;BME280;67933;51.060;3.638;2023-05-10T10:58:35;101398.78;;;15.11;82.44
78613;BME280;67933;51.060;3.638;2023-05-10T11:01:19;101398.28;;;14.79;83.32
78613;BME280;67933;51.060;3.638;2023-05-10T11:06:32;101405.00;;;14.16;85.85
78613;BME280;67933;51.060;3.638;2023-05-10T11:08:59;101402.72;;;13.96;86.38
78613;BME280;67933;51.060;3.638;2023-05-10T11:11:25;101401.78;;;13.83;87.68
78613;BME280;67933;51.060;3.638;2023-05-10T11:13:50;101405.09;;;13.72;87.33
78613;BME280;67933;51.060;3.638;2023-05-10T11:16:19;101402.53;;;13.71;87.98
78613;BME280;67933;51.060;3.638;2023-05-10T11:19:03;101403.03;;;13.77;90.17
78613;BME280;67933;51.060;3.638;2023-05-10T11:21:33;101404.84;;;13.77;89.38
78613;BME280;67933;51.060;3.638;2023-05-10T11:24:00;101404.34;;;13.84;88.65
78613;BME280;67933;51.060;3.638;2023-05-10T11:26:31;101409.13;;;13.94;90.66
78613;BME280;67933;51.060;3.638;2023-05-10T11:28:56;101403.41;;;14.00;89.16
78613;BME280;67933;51.060;3.638;2023-05-10T11:31:23;101408.22;;;14.21;88.28
78613;BME280;67933;51.060;3.638;2023-05-10T11:33:53;101403.03;;;14.33;87.34
78613;BME280;67933;51.060;3.638;2023-05-10T11:36:24;101405.09;;;14.70;88.41
78613;BME280;67933;51.060;3.638;2023-05-10T11:38:51;101404.94;;;14.86;87.40
78613;BME280;67933;51.060;3.638;2023-05-10T11:41:17;101396.63;;;15.03;86.33
78613;BME280;67933;51.060;3.638;2023-05-10T11:43:46;101397.34;;;15.32;86.61
78613;BME280;67933;51.060;3.638;2023-05-10T11:46:12;101396.97;;;15.63;84.61
78613;BME280;67933;51.060;3.638;2023-05-10T11:48:39;101390.53;;;15.66;83.20
78613;BME280;67933;51.060;3.638;2023-05-10T11:51:05;101395.88;;;15.53;83.56
78613;BME280;67933;51.060;3.638;2023-05-10T11:53:32;101397.34;;;15.32;85.34
78613;BME280;67933;51.060;3.638;2023-05-10T11:56:09;101394.09;;;15.27;84.81
78613;BME280;67933;51.060;3.638;2023-05-10T11:58:35;101390.28;;;15.31;86.03
78613;BME280;67933;51.060;3.638;2023-05-10T12:01:02;101395.28;;;15.35;84.37
78613;BME280;67933;51.060;3.638;2023-05-10T12:03:28;101382.34;;;15.42;86.93
78613;BME280;67933;51.060;3.638;2023-05-10T12:05:54;101390.69;;;15.50;85.84
78613;BME280;67933;51.060;3.638;2023-05-10T12:08:22;101389.84;;;15.37;83.48
78613;BME280;67933;51.060;3.638;2023-05-10T12:10:47;101403.94;;;15.26;86.44
78613;BME280;67933;51.060;3.638;2023-05-10T12:13:14;101395.09;;;14.86;85.43
78613;BME280;67933;51.060;3.638;2023-05-10T12:15:40;101390.97;;;14.68;88.49
78613;BME280;67933;51.060;3.638;2023-05-10T12:18:09;101388.13;;;14.57;90.04
78613;BME280;67933;51.060;3.638;2023-05-10T12:20:36;101401.44;;;14.30;88.84
78613;BME280;67933;51.060;3.638;2023-05-10T12:23:01;101395.28;;;14.15;92.45
78613;BME280;67933;51.060;3.638;2023-05-10T12:25:36;101410.16;;;13.91;92.20
78613;BME280;67933;51.060;3.638;2023-05-10T12:28:06;101411.69;;;13.67;93.48
78613;BME280;67933;51.060;3.638;2023-05-10T12:30:33;101409.19;;;13.49;94.44
78613;BME280;67933;51.060;3.638;2023-05-10T12:33:12;101413.16;;;13.42;95.00
78613;BME280;67933;51.060;3.638;2023-05-10T12:35:52;101421.16;;;13.42;96.39
78613;BME280;67933;51.060;3.638;2023-05-10T12:40:55;101411.03;;;13.19;96.57
78613;BME280;67933;51.060;3.638;2023-05-10T12:43:22;101410.44;;;13.14;96.44
78613;BME280;67933;51.060;3.638;2023-05-10T12:45:47;101417.38;;;13.17;95.33
78613;BME280;67933;51.060;3.638;2023-05-10T12:48:14;101410.25;;;13.17;96.57
78613;BME280;67933;51.060;3.638;2023-05-10T12:50:40;101410.84;;;13.22;97.15
78613;BME280;67933;51.060;3.638;2023-05-10T12:53:05;101414.94;;;13.28;97.27
78613;BME280;67933;51.060;3.638;2023-05-10T12:55:31;101411.66;;;13.38;97.31
78613;BME280;67933;51.060;3.638;2023-05-10T12:57:56;101425.63;;;13.42;96.52
78613;BME280;67933;51.060;3.638;2023-05-10T13:00:22;101415.28;;;13.52;97.10
78613;BME280;67933;51.060;3.638;2023-05-10T13:02:47;101423.84;;;13.57;97.02
78613;BME280;67933;51.060;3.638;2023-05-10T13:05:13;101424.44;;;13.62;95.88
78613;BME280;67933;51.060;3.638;2023-05-10T13:07:38;101423.84;;;13.71;96.10
78613;BME280;67933;51.060;3.638;2023-05-10T13:10:07;101427.88;;;13.78;94.30
78613;BME280;67933;51.060;3.638;2023-05-10T13:12:33;101429.88;;;13.88;94.45
78613;BME280;67933;51.060;3.638;2023-05-10T13:14:58;101422.81;;;14.02;95.51
78613;BME280;67933;51.060;3.638;2023-05-10T13:17:25;101438.16;;;14.12;96.05
78613;BME280;67933;51.060;3.638;2023-05-10T13:19:50;101428.66;;;14.08;96.60
78613;BME280;67933;51.060;3.638;2023-05-10T13:22:16;101425.38;;;14.17;96.88
78613;BME280;67933;51.060;3.638;2023-05-10T13:24:41;101430.03;;;14.42;96.40